»·PEaware :: N525SA KSLC-KCLM

N525SA :: KSLC-KCLM

FLIGHT INFORMATION

Flight Status: Arrived
Operator: Privately registered:
United States
More flights under this callsign
Pilot: Utku A. (15598)
Aircraft: SOCATA TBM-900
(TBM9)
More flights by this aircraft type
Origin: KSLC Salt Lake City Intl
United States
Destination: KCLM Fairchild Intl
United States
More flights between these airports :: More routes between these airports
Route: +SLC4 TCH V484 TWF V253 BOI V4 JAWBN
File this flight plan on PilotEdge
Remarks: SKYHIGH DEADHEAD LEG FOR Mission 3 (Ferry from DRO to CLM)
Altitude:
(Current/Filed)
30,000ft
Speed:
(Current/Filed)
324kts
Departed: 20-Oct-18 07:24 PM
Arrived: 20-Oct-18 09:47 PM
Distance/Time
Traveled:
659nm/2:23
Distance/Time
To Go:
Arrived

Flight Plot

Page will automatically refresh every two minutes.

Flight plan parsing failed; only flown route is shown


Map Options




Map Legend


Flown Route
Filed Route
Departure Airport
Arrival Airport
Navaid (VOR, NDB)
Fix

Horizontal Profiles

Position Reports

Time Latitude Longitude Heading Altitude Ground
Speed
20-Oct-18 18:51 40.779249 -111.958531 87 4199ft 0kts
20-Oct-18 18:52 40.779249 -111.958531 87 4199ft 0kts
20-Oct-18 18:53 40.779249 -111.958531 87 4199ft 0kts
20-Oct-18 18:54 40.779249 -111.958531 87 4199ft 0kts
20-Oct-18 18:55 40.779249 -111.958531 87 4199ft 0kts
20-Oct-18 18:56 40.779249 -111.958531 87 4199ft 0kts
20-Oct-18 18:57 40.779249 -111.958531 87 4199ft 0kts
20-Oct-18 18:58 40.779249 -111.958531 87 4199ft 0kts
20-Oct-18 18:59 40.779249 -111.958531 87 4199ft 0kts
20-Oct-18 19:00 40.779249 -111.958531 87 4199ft 0kts
20-Oct-18 19:01 40.779249 -111.958531 87 4199ft 0kts
20-Oct-18 19:02 40.779249 -111.958531 87 4199ft 0kts
20-Oct-18 19:03 40.779249 -111.958531 87 4199ft 0kts
20-Oct-18 19:04 40.779249 -111.958531 87 4199ft 0kts
20-Oct-18 19:05 40.779249 -111.958531 87 4199ft 0kts
20-Oct-18 19:06 40.779249 -111.958531 87 4199ft 0kts
20-Oct-18 19:07 40.779249 -111.958531 87 4199ft 0kts
20-Oct-18 19:08 40.779249 -111.958531 87 4199ft 0kts
20-Oct-18 19:09 40.779249 -111.958531 87 4199ft 0kts
20-Oct-18 19:10 40.779249 -111.958531 87 4199ft 0kts
20-Oct-18 19:11 40.779249 -111.958531 87 4199ft 0kts
20-Oct-18 19:12 40.779249 -111.958531 87 4199ft 0kts
20-Oct-18 19:13 40.779249 -111.958531 87 4199ft 0kts
20-Oct-18 19:14 40.779249 -111.958531 87 4199ft 0kts
20-Oct-18 19:15 40.779249 -111.958531 87 4199ft 0kts
20-Oct-18 19:16 40.779249 -111.958531 87 4199ft 0kts
20-Oct-18 19:17 40.779249 -111.958531 87 4199ft 0kts
20-Oct-18 19:18 40.779248 -111.958485 99 4199ft 2kts
20-Oct-18 19:19 40.780216 -111.959289 359 4199ft 12kts
20-Oct-18 19:20 40.782573 -111.960045 357 4199ft 8kts
20-Oct-18 19:21 40.786638 -111.960015 0 4199ft 15kts
20-Oct-18 19:22 40.790709 -111.960007 0 4199ft 14kts
20-Oct-18 19:23 40.794565 -111.960014 0 4199ft 13kts
20-Oct-18 19:24 40.798164 -111.960041 359 4199ft 9kts
20-Oct-18 19:25 40.799297 -111.961051 234 4199ft 9kts
20-Oct-18 19:26 40.788444 -111.962073 177 4264ft 119kts
20-Oct-18 19:27 40.767768 -111.987448 288 6301ft 144kts
20-Oct-18 19:28 40.793226 -112.031610 306 8434ft 155kts
20-Oct-18 19:29 40.819863 -112.074900 305 10748ft 149kts
20-Oct-18 19:30 40.847536 -112.115143 310 12908ft 150kts
20-Oct-18 19:31 40.881278 -112.158031 312 14134ft 201kts
20-Oct-18 19:32 40.921992 -112.209550 312 15905ft 205kts
20-Oct-18 19:33 40.959645 -112.257325 312 17814ft 200kts
20-Oct-18 19:34 40.999515 -112.308033 312 19694ft 201kts
20-Oct-18 19:35 41.039201 -112.358541 312 21903ft 196kts
20-Oct-18 19:36 41.078171 -112.408248 312 23789ft 196kts
20-Oct-18 19:37 41.116493 -112.457196 312 25781ft 197kts
20-Oct-18 19:38 41.159398 -112.512090 312 27227ft 227kts
20-Oct-18 19:39 41.204514 -112.569932 312 28852ft 234kts
20-Oct-18 19:40 41.255456 -112.635397 313 29453ft 271kts
20-Oct-18 19:41 41.310613 -112.706430 312 30001ft 289kts
20-Oct-18 19:42 41.369750 -112.782813 312 30271ft 306kts
20-Oct-18 19:43 41.432130 -112.863618 313 30266ft 320kts
20-Oct-18 19:44 41.495120 -112.949304 309 30265ft 327kts
20-Oct-18 19:45 41.555583 -113.041468 309 30264ft 333kts
20-Oct-18 19:46 41.616840 -113.135234 309 30245ft 337kts
20-Oct-18 19:47 41.678331 -113.229709 309 30219ft 339kts
20-Oct-18 19:48 41.740309 -113.325237 309 30211ft 339kts
20-Oct-18 19:49 41.802002 -113.420629 309 30212ft 340kts
20-Oct-18 19:50 41.863507 -113.516037 309 30212ft 340kts
20-Oct-18 19:51 41.925125 -113.611926 309 30213ft 340kts
20-Oct-18 19:52 41.985811 -113.706664 309 30211ft 340kts
20-Oct-18 19:53 42.047236 -113.802870 309 30211ft 340kts
20-Oct-18 19:54 42.106691 -113.896290 309 30209ft 340kts
20-Oct-18 19:55 42.167756 -113.992549 309 30207ft 339kts
20-Oct-18 19:56 42.228860 -114.089220 309 30199ft 339kts
20-Oct-18 19:57 42.289597 -114.185602 308 30191ft 339kts
20-Oct-18 19:58 42.350629 -114.282732 309 30181ft 340kts
20-Oct-18 19:59 42.411752 -114.380305 309 30183ft 340kts
20-Oct-18 20:00 42.472657 -114.477910 309 30186ft 340kts
20-Oct-18 20:01 42.534898 -114.574411 310 30184ft 340kts
20-Oct-18 20:02 42.596345 -114.669567 309 30186ft 340kts
20-Oct-18 20:03 42.658239 -114.765748 309 30199ft 340kts
20-Oct-18 20:04 42.720334 -114.862520 309 30209ft 340kts
20-Oct-18 20:05 42.782401 -114.959588 309 30210ft 340kts
20-Oct-18 20:06 42.844315 -115.056751 309 30210ft 340kts
20-Oct-18 20:07 42.906052 -115.153965 310 30213ft 340kts
20-Oct-18 20:08 42.967858 -115.251579 310 30202ft 340kts
20-Oct-18 20:09 43.029076 -115.348571 310 30181ft 340kts
20-Oct-18 20:10 43.090712 -115.446573 310 30159ft 340kts
20-Oct-18 20:11 43.150550 -115.542046 310 30152ft 339kts
20-Oct-18 20:12 43.211782 -115.640074 310 30156ft 339kts
20-Oct-18 20:13 43.272089 -115.736937 309 30155ft 339kts
20-Oct-18 20:14 43.333053 -115.835184 309 30156ft 338kts
20-Oct-18 20:15 43.393943 -115.933638 309 30153ft 339kts
20-Oct-18 20:16 43.454913 -116.032572 309 30157ft 339kts
20-Oct-18 20:17 43.515658 -116.131468 309 30154ft 339kts
20-Oct-18 20:18 43.580188 -116.225376 318 30158ft 339kts
20-Oct-18 20:19 43.650431 -116.311203 318 30155ft 339kts
20-Oct-18 20:20 43.720956 -116.397548 318 30158ft 339kts
20-Oct-18 20:21 43.787991 -116.479887 318 30155ft 339kts
20-Oct-18 20:22 43.857900 -116.566030 318 30154ft 340kts
20-Oct-18 20:23 43.927257 -116.651784 318 30157ft 340kts
20-Oct-18 20:24 43.997460 -116.738862 318 30158ft 340kts
20-Oct-18 20:25 44.067947 -116.826594 318 30158ft 340kts
20-Oct-18 20:26 44.136220 -116.911832 318 30153ft 339kts
20-Oct-18 20:27 44.206283 -116.999598 318 30154ft 339kts
20-Oct-18 20:28 44.275889 -117.087074 318 30154ft 338kts
20-Oct-18 20:29 44.345365 -117.174685 318 30155ft 337kts
20-Oct-18 20:30 44.414696 -117.262411 318 30163ft 336kts
20-Oct-18 20:31 44.483754 -117.350088 318 30179ft 336kts
20-Oct-18 20:32 44.552975 -117.438264 318 30184ft 336kts
20-Oct-18 20:33 44.622053 -117.526562 318 30184ft 337kts
20-Oct-18 20:34 44.690707 -117.614611 318 30184ft 337kts
20-Oct-18 20:35 44.758787 -117.702208 317 30182ft 337kts
20-Oct-18 20:36 44.827762 -117.791259 317 30182ft 336kts
20-Oct-18 20:37 44.896401 -117.879964 317 30183ft 336kts
20-Oct-18 20:38 44.965294 -117.969245 317 30183ft 336kts
20-Oct-18 20:39 45.033914 -118.058394 315 30175ft 336kts
20-Oct-18 20:40 45.101387 -118.146485 314 30161ft 331kts
20-Oct-18 20:41 45.167240 -118.232736 314 30152ft 324kts
20-Oct-18 20:42 45.233235 -118.319423 314 30153ft 322kts
20-Oct-18 20:43 45.298342 -118.405226 314 30154ft 321kts
20-Oct-18 20:44 45.363691 -118.491621 314 30154ft 321kts
20-Oct-18 20:45 45.428822 -118.578018 314 30152ft 321kts
20-Oct-18 20:46 45.492643 -118.662954 313 30135ft 321kts
20-Oct-18 20:47 45.557390 -118.749407 313 30116ft 321kts
20-Oct-18 20:48 45.622564 -118.836720 313 30101ft 321kts
20-Oct-18 20:49 45.687634 -118.924184 313 30102ft 321kts
20-Oct-18 20:50 45.746216 -119.019210 307 30102ft 319kts
20-Oct-18 20:51 45.803468 -119.115875 307 30102ft 319kts
20-Oct-18 20:52 45.860898 -119.213199 307 30102ft 319kts
20-Oct-18 20:53 45.918083 -119.310433 307 30102ft 320kts
20-Oct-18 20:54 45.975131 -119.407799 307 30110ft 319kts
20-Oct-18 20:55 46.032302 -119.505717 307 30119ft 319kts
20-Oct-18 20:56 46.089317 -119.603716 307 30129ft 319kts
20-Oct-18 20:57 46.142596 -119.695632 306 30127ft 319kts
20-Oct-18 20:58 46.199463 -119.794109 306 30127ft 319kts
20-Oct-18 20:59 46.255899 -119.892133 306 30127ft 319kts
20-Oct-18 21:00 46.312531 -119.990867 306 30127ft 319kts
20-Oct-18 21:01 46.368844 -120.089377 306 30136ft 319kts
20-Oct-18 21:02 46.425315 -120.188533 306 30147ft 319kts
20-Oct-18 21:03 46.481624 -120.287753 306 30155ft 319kts
20-Oct-18 21:04 46.537843 -120.387175 306 30154ft 319kts
20-Oct-18 21:05 46.591532 -120.489079 302 30155ft 318kts
20-Oct-18 21:06 46.642020 -120.594624 302 30154ft 318kts
20-Oct-18 21:07 46.684168 -120.683132 301 30156ft 318kts
20-Oct-18 21:08 46.732909 -120.785828 301 30156ft 318kts
20-Oct-18 21:09 46.783223 -120.892188 301 30156ft 318kts
20-Oct-18 21:10 46.833278 -120.998417 301 30156ft 318kts
20-Oct-18 21:11 46.882872 -121.104099 301 30156ft 318kts
20-Oct-18 21:12 46.932702 -121.210646 300 30156ft 317kts
20-Oct-18 21:13 46.982135 -121.316786 300 30156ft 314kts
20-Oct-18 21:14 47.030794 -121.421681 300 30155ft 311kts
20-Oct-18 21:15 47.078814 -121.525603 300 30154ft 308kts
20-Oct-18 21:16 47.116348 -121.607094 300 30151ft 307kts
20-Oct-18 21:17 47.171118 -121.726449 299 30152ft 306kts
20-Oct-18 21:18 47.210928 -121.813535 299 29871ft 315kts
20-Oct-18 21:19 47.261602 -121.924229 300 28509ft 334kts
20-Oct-18 21:20 47.312966 -122.036891 300 27025ft 334kts
20-Oct-18 21:21 47.363913 -122.149125 300 25544ft 333kts
20-Oct-18 21:22 47.414721 -122.261483 300 24051ft 330kts
20-Oct-18 21:23 47.482957 -122.345894 327 22511ft 331kts
20-Oct-18 21:24 47.559532 -122.417598 325 21014ft 327kts
20-Oct-18 21:25 47.636584 -122.486051 325 19643ft 317kts
20-Oct-18 21:26 47.709549 -122.551949 325 19108ft 297kts
20-Oct-18 21:27 47.780726 -122.615785 326 18189ft 303kts
20-Oct-18 21:28 47.851422 -122.678891 324 16960ft 280kts
20-Oct-18 21:29 47.912320 -122.734948 325 14690ft 249kts
20-Oct-18 21:30 47.970282 -122.787514 325 12378ft 239kts
20-Oct-18 21:31 48.032651 -122.792598 32 10051ft 243kts
20-Oct-18 21:32 48.055099 -122.701143 75 7764ft 238kts
20-Oct-18 21:33 48.015598 -122.660248 195 5426ft 230kts
20-Oct-18 21:34 47.994848 -122.725814 295 3979ft 175kts
20-Oct-18 21:35 48.014673 -122.788486 295 4014ft 154kts
20-Oct-18 21:36 48.031975 -122.845966 285 4032ft 154kts
20-Oct-18 21:37 48.041790 -122.901786 285 3734ft 132kts
20-Oct-18 21:38 48.050986 -122.955319 284 3731ft 133kts
20-Oct-18 21:39 48.061384 -123.016008 283 3742ft 171kts
20-Oct-18 21:40 48.072845 -123.083413 283 3706ft 158kts
20-Oct-18 21:41 48.079210 -123.145114 253 3669ft 149kts
20-Oct-18 21:42 48.082290 -123.209768 278 3178ft 168kts
20-Oct-18 21:43 48.086249 -123.278585 274 2928ft 163kts
20-Oct-18 21:44 48.091340 -123.338936 280 2702ft 120kts
20-Oct-18 21:45 48.098838 -123.384131 282 2061ft 104kts
20-Oct-18 21:46 48.105409 -123.421590 281 1410ft 91kts
20-Oct-18 21:47 48.111848 -123.458991 283 821ft 92kts
20-Oct-18 21:48 48.118288 -123.495813 282 271ft 76kts
20-Oct-18 21:49 48.120043 -123.506620 251 269ft 5kts
20-Oct-18 21:50 48.118941 -123.505929 105 271ft 11kts
20-Oct-18 21:51 48.118354 -123.502589 106 269ft 6kts
20-Oct-18 21:52 48.117430 -123.497384 104 267ft 12kts
20-Oct-18 21:53 48.117148 -123.493932 105 277ft 15kts
20-Oct-18 21:54 48.116338 -123.492248 189 284ft 0kts
20-Oct-18 21:55 48.116338 -123.492248 189 284ft 0kts
20-Oct-18 21:56 48.116338 -123.492248 189 284ft 0kts
20-Oct-18 21:57 48.116338 -123.492248 189 283ft 0kts
20-Oct-18 21:58 48.116338 -123.492248 189 283ft 0kts
20-Oct-18 21:59 48.116338 -123.492248 189 283ft 0kts
20-Oct-18 22:00 48.116338 -123.492248 189 283ft 0kts

Navigation Log

Ident Type
Flight plan parsing failed, navigation log unavailable